Time;durP1;ratioP1;P1;durP2;ratioP2;P2;SDS_P1;SDS_P2;PMS_P1;PMS_P2;Temp;Humidity;BMP_temperature;BMP_pressure;BME280_temperature;BME280_humidity;BME280_pressure;Samples;Min_cycle;Max_cycle;Signal;HPM_P1;HPM_P2
2022/05/28 00:00:51;;;;;;;24.80;4.28;;;;;;;13.22;82.83;102210.59;10418293;28;20453;-76
2022/05/28 00:05:52;;;;;;;6.32;2.85;;;;;;;13.11;83.51;102216.44;10419722;28;20041;-76
2022/05/28 00:10:55;;;;;;;15.48;3.10;;;;;;;13.01;82.56;102208.53;10416993;28;20044;-76
2022/05/28 00:15:55;;;;;;;10.68;3.38;;;;;;;12.94;84.53;102199.41;10416495;28;20460;-76
2022/05/28 00:20:55;;;;;;;9.60;3.35;;;;;;;12.95;85.56;102191.06;10417216;28;20171;-76
2022/05/28 00:25:56;;;;;;;8.73;2.15;;;;;;;12.84;86.61;102198.81;10399597;28;20036;-77
2022/05/28 00:30:56;;;;;;;16.42;3.97;;;;;;;12.81;83.52;102194.59;10398747;28;20040;-76
2022/05/28 00:35:57;;;;;;;9.50;2.25;;;;;;;12.65;86.91;102198.25;10399368;28;20095;-76
2022/05/28 00:40:58;;;;;;;19.77;3.42;;;;;;;12.65;86.65;102202.84;10416756;28;20116;-76
2022/05/28 00:46:11;;;;;;;9.40;1.90;;;;;;;12.59;86.40;102206.28;10414916;28;20116;-77
2022/05/28 00:51:20;;;;;;;12.15;2.67;;;;;;;12.55;88.86;102198.50;10399473;28;20470;-76
2022/05/28 00:56:22;;;;;;;15.02;2.58;;;;;;;12.63;87.05;102200.28;10418193;28;20028;-76
2022/05/28 01:01:25;;;;;;;15.43;3.78;;;;;;;12.59;85.75;102198.97;10419869;28;20037;-76
2022/05/28 01:06:44;;;;;;;26.45;3.42;;;;;;;12.39;86.79;102203.19;10416067;28;20041;-76
2022/05/28 01:11:50;;;;;;;10.50;2.70;;;;;;;12.25;87.06;102204.75;10381958;28;20043;-76
2022/05/28 01:16:55;;;;;;;3.13;2.53;;;;;;;12.13;89.98;102193.44;10413791;28;20036;-76
2022/05/28 01:21:55;;;;;;;21.92;4.18;;;;;;;12.11;89.05;102195.47;10398739;28;20034;-76
2022/05/28 01:27:04;;;;;;;12.48;3.97;;;;;;;12.09;86.96;102197.50;10414874;28;20034;-75
2022/05/28 01:32:05;;;;;;;5.50;3.10;;;;;;;11.95;88.42;102196.38;10413730;28;20025;-76
2022/05/28 01:37:05;;;;;;;18.27;3.78;;;;;;;11.92;88.87;102199.44;10414268;28;20557;-76
2022/05/28 01:42:07;;;;;;;17.33;4.07;;;;;;;11.87;88.18;102196.44;10415298;28;20029;-76
2022/05/28 01:47:07;;;;;;;14.55;3.85;;;;;;;11.80;88.47;102193.50;10397032;28;20025;-76
2022/05/28 01:52:07;;;;;;;18.30;4.35;;;;;;;11.74;86.89;102194.22;10397491;28;20120;-76
2022/05/28 01:57:08;;;;;;;18.70;4.30;;;;;;;11.65;88.47;102200.69;10397952;28;20037;-76
2022/05/28 02:02:13;;;;;;;9.15;4.00;;;;;;;11.59;89.86;102190.53;10396682;28;20587;-76
2022/05/28 02:07:17;;;;;;;19.30;3.97;;;;;;;11.55;88.67;102200.00;10380841;28;20425;-76
2022/05/28 02:12:17;;;;;;;12.82;3.13;;;;;;;11.49;88.31;102189.88;10414049;28;20052;-76
2022/05/28 02:17:22;;;;;;;22.83;6.03;;;;;;;11.48;90.15;102197.13;10398159;28;20547;-76
2022/05/28 02:22:39;;;;;;;12.38;3.33;;;;;;;11.52;89.97;102194.91;10397176;28;20366;-75
2022/05/28 02:27:39;;;;;;;16.03;5.13;;;;;;;11.46;89.90;102190.22;10404011;28;20029;-75
2022/05/28 02:32:40;;;;;;;12.82;2.40;;;;;;;11.43;90.63;102179.72;10387706;28;20033;-76
2022/05/28 02:37:40;;;;;;;8.77;3.75;;;;;;;11.39;89.50;102180.06;10404823;28;20056;-76
2022/05/28 02:42:41;;;;;;;10.48;2.83;;;;;;;11.37;90.23;102186.66;10404201;28;20551;-76
2022/05/28 02:47:42;;;;;;;12.73;3.17;;;;;;;11.36;91.63;102180.38;10422409;28;20083;-76
2022/05/28 02:52:43;;;;;;;10.23;2.22;;;;;;;11.29;92.49;102184.78;10420711;28;20037;-76
2022/05/28 02:57:44;;;;;;;4.18;2.47;;;;;;;11.31;90.31;102184.63;10420645;28;20033;-75
2022/05/28 03:02:44;;;;;;;11.15;3.88;;;;;;;11.29;91.19;102184.78;10420991;28;20060;-76
2022/05/28 03:07:45;;;;;;;11.45;3.70;;;;;;;11.26;94.34;102177.00;10420636;28;20080;-76
2022/05/28 03:12:45;;;;;;;9.00;1.40;;;;;;;11.35;93.67;102175.13;10420183;28;20385;-76
2022/05/28 03:17:46;;;;;;;13.25;2.10;;;;;;;11.35;92.30;102185.97;10420046;28;20469;-76
2022/05/28 03:22:46;;;;;;;4.32;2.13;;;;;;;11.30;90.56;102191.06;10402307;28;20033;-76
2022/05/28 03:27:47;;;;;;;7.63;2.10;;;;;;;11.31;91.21;102199.03;10419690;28;20389;-76
2022/05/28 03:32:47;;;;;;;5.38;2.28;;;;;;;11.34;91.96;102200.56;10418669;28;20025;-77
2022/05/28 03:37:48;;;;;;;16.58;2.53;;;;;;;11.31;89.34;102201.75;10418682;28;20092;-76
2022/05/28 03:42:48;;;;;;;10.27;2.40;;;;;;;11.20;90.51;102202.09;10418423;28;20484;-76
2022/05/28 03:47:48;;;;;;;12.00;2.75;;;;;;;11.16;90.47;102204.28;10402185;28;20048;-76
2022/05/28 03:52:49;;;;;;;9.30;1.80;;;;;;;11.14;90.74;102200.06;10400929;28;20041;-76
2022/05/28 03:57:49;;;;;;;1.85;1.10;;;;;;;11.17;88.79;102199.72;10417268;28;20033;-76
2022/05/28 04:02:49;;;;;;;4.60;2.22;;;;;;;11.07;90.08;102208.03;10418210;28;20034;-76
2022/05/28 04:07:50;;;;;;;5.85;2.03;;;;;;;11.16;89.63;102208.84;10418100;28;20069;-76
2022/05/28 04:12:50;;;;;;;5.38;2.35;;;;;;;11.11;89.78;102214.78;10401686;28;20450;-76
2022/05/28 04:17:51;;;;;;;6.75;1.88;;;;;;;11.24;89.04;102213.44;10417729;28;20049;-76
2022/05/28 04:22:52;;;;;;;11.50;2.00;;;;;;;11.33;89.81;102226.84;10417518;28;20473;-76
2022/05/28 04:27:52;;;;;;;10.00;1.45;;;;;;;11.46;87.82;102223.59;10417347;28;20037;-76
2022/05/28 04:32:53;;;;;;;8.23;1.90;;;;;;;11.64;89.42;102223.41;10415840;28;20041;-75
2022/05/28 04:37:53;;;;;;;3.15;1.52;;;;;;;11.66;89.21;102240.38;10417473;28;20053;-75
2022/05/28 04:42:54;;;;;;;11.93;2.75;;;;;;;11.70;87.26;102230.84;10416101;28;20033;-76
2022/05/28 04:47:54;;;;;;;9.35;1.75;;;;;;;12.89;85.34;102235.31;10417480;28;20087;-76
2022/05/28 04:52:54;;;;;;;4.47;2.00;;;;;;;13.87;82.56;102220.88;10398366;28;20152;-76
2022/05/28 04:57:55;;;;;;;9.15;2.45;;;;;;;13.48;82.29;102227.38;10416374;28;20046;-76
2022/05/28 05:02:55;;;;;;;10.07;3.03;;;;;;;14.35;79.65;102245.00;10416016;28;20033;-76
2022/05/28 05:07:56;;;;;;;3.92;1.90;;;;;;;14.88;77.24;102237.50;10415947;28;20033;-76
2022/05/28 05:12:57;;;;;;;7.40;2.15;;;;;;;15.31;73.04;102238.31;10398674;28;20033;-76
2022/05/28 05:17:59;;;;;;;10.43;2.20;;;;;;;15.86;71.82;102232.25;10413941;28;20084;-77
2022/05/28 05:22:59;;;;;;;11.85;2.30;;;;;;;15.94;68.25;102251.25;10415616;28;20047;-77
2022/05/28 05:28:00;;;;;;;8.45;3.17;;;;;;;16.53;67.98;102250.72;10414964;28;20034;-76
2022/05/28 05:33:00;;;;;;;13.40;1.67;;;;;;;16.88;65.09;102242.44;10382861;28;20100;-76
2022/05/28 05:38:05;;;;;;;8.77;1.52;;;;;;;17.33;65.51;102246.31;10417409;28;20133;-77
2022/05/28 05:43:06;;;;;;;2.20;1.75;;;;;;;17.30;62.44;102254.09;10415029;28;20038;-76
2022/05/28 05:48:08;;;;;;;2.80;1.30;;;;;;;16.55;62.60;102253.25;10413971;28;20065;-76
2022/05/28 05:53:08;;;;;;;6.35;1.52;;;;;;;15.78;67.56;102269.63;10415758;28;20048;-76
2022/05/28 05:58:08;;;;;;;4.00;1.23;;;;;;;15.32;66.66;102275.50;10414331;28;20064;-76
2022/05/28 06:03:15;;;;;;;4.07;1.50;;;;;;;16.73;66.05;102272.69;10407213;28;20037;-76
2022/05/28 06:08:16;;;;;;;3.70;2.28;;;;;;;18.07;62.25;102266.31;10406016;28;20029;-77
2022/05/28 06:13:16;;;;;;;1.73;1.45;;;;;;;18.61;56.76;102272.47;10422369;28;20029;-77
2022/05/28 06:18:17;;;;;;;8.23;2.13;;;;;;;18.62;59.37;102265.91;10422404;28;20041;-77
2022/05/28 06:23:17;;;;;;;3.55;1.98;;;;;;;18.49;61.41;102278.63;10404434;28;20029;-77
2022/05/28 06:28:18;;;;;;;2.63;1.70;;;;;;;18.44;59.91;102277.59;10422005;28;20108;-77
2022/05/28 06:33:18;;;;;;;5.90;1.52;;;;;;;17.56;58.99;102275.19;10422849;28;20034;-77
2022/05/28 06:38:20;;;;;;;3.45;1.73;;;;;;;16.97;61.50;102290.44;10420800;28;20475;-77
2022/05/28 06:43:20;;;;;;;1.17;1.02;;;;;;;16.80;60.03;102284.50;10422216;28;20083;-76
2022/05/28 06:48:21;;;;;;;5.68;1.50;;;;;;;18.04;59.36;102294.16;10421245;28;20080;-76
2022/05/28 06:53:21;;;;;;;2.83;1.25;;;;;;;16.51;60.72;102288.34;10386794;28;20029;-76
2022/05/28 06:58:21;;;;;;;1.20;1.05;;;;;;;17.26;60.75;102297.50;10420195;28;20110;-77
2022/05/28 07:03:25;;;;;;;4.75;2.08;;;;;;;18.20;58.67;102292.84;10420728;28;20128;-77
2022/05/28 07:08:26;;;;;;;5.70;2.08;;;;;;;18.36;55.66;102295.97;10386761;28;20381;-78
2022/05/28 07:13:27;;;;;;;3.47;1.73;;;;;;;20.30;56.60;102292.81;10401898;28;20116;-78
2022/05/28 07:18:27;;;;;;;3.35;2.15;;;;;;;21.31;48.29;102283.00;10401769;28;20132;-77
2022/05/28 07:23:28;;;;;;;3.83;2.47;;;;;;;20.86;53.31;102289.78;10366968;28;20053;-75
2022/05/28 07:28:30;;;;;;;8.18;1.83;;;;;;;18.62;53.58;102310.66;10419721;28;20041;-76
2022/05/28 07:33:33;;;;;;;5.40;2.08;;;;;;;17.47;57.22;102312.03;10419874;28;20545;-77
2022/05/28 07:38:34;;;;;;;8.30;1.73;;;;;;;19.50;53.87;102304.50;10420591;28;20057;-76
2022/05/28 07:43:35;;;;;;;14.82;2.72;;;;;;;20.38;49.90;102303.50;10418995;28;20460;-76
2022/05/28 07:48:36;;;;;;;3.75;2.28;;;;;;;20.81;49.60;102314.44;10401070;28;20072;-76
2022/05/28 07:53:36;;;;;;;2.45;2.17;;;;;;;19.88;49.63;102309.09;10418417;28;20061;-76
2022/05/28 07:58:36;;;;;;;2.85;1.95;;;;;;;20.34;50.96;102305.03;10399949;28;20060;-77
2022/05/28 08:03:37;;;;;;;1.83;1.73;;;;;;;20.23;48.60;102303.00;10400002;28;20033;-76
2022/05/28 08:08:37;;;;;;;4.10;1.73;;;;;;;18.75;53.61;102301.56;10418424;28;20033;-76
2022/05/28 08:13:38;;;;;;;3.42;2.13;;;;;;;17.88;54.89;102304.50;10416466;28;20033;-77
2022/05/28 08:18:39;;;;;;;13.00;3.33;;;;;;;20.30;50.48;102295.56;10400010;28;20067;-77
2022/05/28 08:23:41;;;;;;;8.52;1.55;;;;;;;19.42;52.10;102307.50;10417179;28;20033;-76
2022/05/28 08:28:41;;;;;;;3.33;2.13;;;;;;;19.35;50.98;102298.47;10417559;28;20025;-76
2022/05/28 08:33:42;;;;;;;4.45;2.00;;;;;;;21.01;48.50;102302.31;10416092;28;20545;-77
2022/05/28 08:38:44;;;;;;;6.57;2.35;;;;;;;22.40;43.38;102286.22;10398683;28;20049;-76
2022/05/28 08:44:08;;;;;;;8.65;2.33;;;;;;;21.04;45.74;102307.34;10416893;28;20425;-76
2022/05/28 08:49:09;;;;;;;3.60;2.63;;;;;;;18.80;51.04;102319.06;10417089;28;20025;-76
2022/05/28 08:54:26;;;;;;;3.03;1.90;;;;;;;18.87;51.60;102312.69;10397957;28;20500;-76
2022/05/28 08:59:33;;;;;;;;;;;;;;;18.51;53.83;102325.91;10398039;28;20099;-76
2022/05/28 09:04:39;;;;;;;11.23;3.28;;;;;;;18.35;53.53;102324.47;10415689;28;19908;-76
2022/05/28 09:09:46;;;;;;;2.17;2.03;;;;;;;17.96;55.55;102339.03;10397434;28;20041;-76
2022/05/28 09:14:46;;;;;;;1.80;1.58;;;;;;;19.28;50.91;102323.25;10398267;28;20030;-76
2022/05/28 09:19:48;;;;;;;3.22;2.65;;;;;;;19.21;51.12;102328.78;10414731;28;20037;-76
2022/05/28 09:24:49;;;;;;;3.33;2.35;;;;;;;20.15;50.22;102315.16;10414880;28;20036;-76
2022/05/28 09:30:11;;;;;;;3.40;3.08;;;;;;;20.70;46.42;102311.63;10415038;28;20362;-76
2022/05/28 09:35:21;;;;;;;8.93;2.65;;;;;;;19.88;49.37;102315.44;10418405;28;20187;-77
2022/05/28 09:40:26;;;;;;;6.97;2.65;;;;;;;18.61;51.80;102314.47;10422610;28;20548;-76
2022/05/28 09:45:44;;;;;;;7.00;2.67;;;;;;;18.78;51.98;102314.84;10422318;28;20535;-76
2022/05/28 09:50:44;;;;;;;11.23;3.05;;;;;;;21.43;48.15;102311.47;10421490;28;20033;-75
2022/05/28 09:55:57;;;;;;;2.50;2.00;;;;;;;22.05;44.29;102309.16;10422950;28;20159;-74
2022/05/28 10:01:21;;;;;;;4.65;1.77;;;;;;;20.93;43.38;102310.88;10422718;28;20032;-79
2022/05/28 10:06:22;;;;;;;3.95;2.30;;;;;;;21.73;46.95;102310.53;10422709;28;20033;-79
2022/05/28 10:11:23;;;;;;;7.32;1.73;;;;;;;22.43;43.30;102298.69;10424746;28;20041;-80
2022/05/28 10:16:27;;;;;;;10.88;2.78;;;;;;;23.67;41.02;102296.13;10424643;28;20044;-77
2022/05/28 10:21:32;;;;;;;7.25;2.47;;;;;;;24.21;42.01;102309.41;10406316;28;20087;-78
2022/05/28 10:26:36;;;;;;;3.47;2.13;;;;;;;24.20;39.71;102296.66;10404798;28;20055;-73
2022/05/28 10:31:40;;;;;;;3.67;1.88;;;;;;;23.56;42.16;102301.72;10405063;28;20033;-73
2022/05/28 10:36:40;;;;;;;2.85;2.08;;;;;;;22.80;40.71;102301.94;10422686;28;20065;-76
2022/05/28 10:41:42;;;;;;;7.57;2.50;;;;;;;23.23;41.09;102295.09;10424831;28;20037;-75
2022/05/28 10:47:10;;;;;;;2.55;2.35;;;;;;;23.71;36.53;102299.25;10422531;28;20033;-77
2022/05/28 10:52:39;;;;;;;3.95;2.53;;;;;;;24.66;37.07;102297.28;10420960;28;20481;-76
2022/05/28 10:58:06;;;;;;;13.18;2.47;;;;;;;22.61;39.27;102308.72;10421365;28;20022;-75
2022/05/28 11:03:16;;;;;;;9.43;1.73;;;;;;;22.39;39.58;102301.09;10402886;28;20432;-78
2022/05/28 11:08:18;;;;;;;5.47;1.27;;;;;;;22.16;39.19;102303.88;10420822;28;20025;-78
2022/05/28 11:13:34;;;;;;;24.92;2.55;;;;;;;22.10;39.76;102299.31;10420521;28;20044;-78
2022/05/28 11:19:06;;;;;;;1.75;1.50;;;;;;;22.44;40.31;102297.63;10420092;28;20033;-78
2022/05/28 11:24:13;;;;;;;4.32;1.58;;;;;;;21.29;40.31;102296.19;10419493;28;20038;-78
2022/05/28 11:29:16;;;;;;;2.47;2.28;;;;;;;21.80;41.32;102289.22;10419673;28;20049;-78
2022/05/28 11:34:22;;;;;;;8.18;1.70;;;;;;;23.94;40.61;102286.31;10419109;28;20076;-79
2022/05/28 11:39:59;;;;;;;6.80;3.42;;;;;;;23.03;41.24;102276.19;10401984;28;20477;-79
2022/05/28 11:45:03;;;;;;;1.60;1.50;;;;;;;23.42;42.81;102288.25;10415061;28;20469;-78
2022/05/28 11:56:05;;;;;;;2.85;1.83;;;;;;;22.61;41.70;102270.91;10417623;28;20033;-77
2022/05/28 12:01:09;;;;;;;2.60;1.63;;;;;;;22.63;41.30;102284.50;10400461;28;20068;-76
2022/05/28 12:06:34;;;;;;;5.00;2.30;;;;;;;21.85;42.94;102277.47;10400373;28;20029;-77
2022/05/28 12:11:45;;;;;;;5.00;2.70;;;;;;;22.32;40.75;102274.72;10410074;28;20215;-78
2022/05/28 12:16:57;;;;;;;5.47;3.20;;;;;;;22.09;42.38;102275.56;10418476;28;20029;-78
2022/05/28 12:22:09;;;;;;;4.53;2.42;;;;;;;20.60;42.04;102279.13;10417385;28;20075;-78
2022/05/28 12:27:22;;;;;;;3.20;2.50;;;;;;;20.16;43.35;102270.06;10399381;28;20059;-77
2022/05/28 12:32:24;;;;;;;2.05;1.30;;;;;;;21.03;43.43;102267.13;10417118;28;20124;-77
2022/05/28 12:37:44;;;;;;;9.95;2.53;;;;;;;21.92;41.62;102261.63;10398615;28;20507;-77
2022/05/28 12:42:45;;;;;;;10.45;2.17;;;;;;;21.27;39.60;102257.00;10417677;28;20140;-79
2022/05/28 12:47:45;;;;;;;3.47;2.17;;;;;;;22.23;39.18;102264.03;10416407;28;20040;-78
2022/05/28 12:53:06;;;;;;;4.63;2.20;;;;;;;23.49;38.03;102256.81;10415305;28;20041;-78
2022/05/28 12:58:09;;;;;;;1.75;1.45;;;;;;;22.50;39.07;102267.13;10398021;28;20029;-79
2022/05/28 13:03:09;;;;;;;4.57;1.65;;;;;;;20.55;38.70;102260.56;10415977;28;20380;-78
2022/05/28 13:08:22;;;;;;;4.88;1.85;;;;;;;20.04;40.48;102253.50;10413718;28;20116;-78
2022/05/28 13:13:38;;;;;;;4.15;1.98;;;;;;;18.65;43.08;102260.84;10398506;28;20029;-79
2022/05/28 13:19:03;;;;;;;3.58;2.03;;;;;;;20.70;42.46;102246.38;10416624;28;20025;-75
2022/05/28 13:24:26;;;;;;;6.72;2.25;;;;;;;20.71;42.31;102250.84;10397886;28;20465;-79
2022/05/28 13:29:43;;;;;;;1.92;1.83;;;;;;;20.85;42.51;102243.22;10414525;28;20473;-77
2022/05/28 13:34:43;;;;;;;;;;;;;;;21.85;41.19;102247.97;10415286;28;20087;-78
2022/05/28 13:39:47;;;;;;;6.82;2.50;;;;;;;20.78;41.48;102253.50;10416492;28;20311;-77
2022/05/28 13:44:47;;;;;;;6.32;2.25;;;;;;;19.21;42.89;102248.31;10413912;28;20033;-78
2022/05/28 13:49:49;;;;;;;6.82;2.13;;;;;;;18.72;44.16;102247.06;10397349;28;20400;-76
2022/05/28 13:54:58;;;;;;;1.60;1.50;;;;;;;18.31;44.43;102235.47;10397441;28;20123;-76
2022/05/28 13:59:59;;;;;;;5.78;2.50;;;;;;;19.84;44.69;102222.63;10397948;28;20346;-77
2022/05/28 14:05:00;;;;;;;2.95;1.85;;;;;;;20.25;43.38;102232.94;10413742;28;20033;-78
2022/05/28 14:10:02;;;;;;;11.00;2.00;;;;;;;21.11;42.63;102229.06;10414412;28;20041;-77
2022/05/28 14:15:05;;;;;;;2.50;1.52;;;;;;;19.82;42.72;102242.09;10415420;28;20087;-77
2022/05/28 14:20:08;;;;;;;3.42;1.92;;;;;;;18.91;44.77;102226.94;10398537;28;20041;-78
2022/05/28 14:25:10;;;;;;;3.40;2.13;;;;;;;18.50;45.21;102233.66;10420789;28;20033;-77
2022/05/28 14:30:11;;;;;;;8.18;2.00;;;;;;;18.83;45.86;102235.47;10421848;28;20126;-76
2022/05/28 14:35:33;;;;;;;11.90;2.17;;;;;;;18.38;47.06;102223.59;10403645;28;20072;-76
2022/05/28 14:40:38;;;;;;;9.68;2.60;;;;;;;18.13;47.69;102232.56;10403584;28;20057;-78
2022/05/28 14:45:40;;;;;;;5.40;2.78;;;;;;;17.99;48.20;102233.63;10420757;28;20116;-77
2022/05/28 14:50:43;;;;;;;11.00;2.65;;;;;;;17.99;48.36;102229.00;10422634;28;20063;-77
2022/05/28 14:55:43;;;;;;;9.13;2.30;;;;;;;18.50;49.13;102219.94;10403034;28;20037;-77
2022/05/28 15:00:44;;;;;;;3.58;1.77;;;;;;;18.42;49.26;102222.97;10386849;28;20033;-77
2022/05/28 15:05:44;;;;;;;7.03;3.08;;;;;;;17.66;49.14;102223.53;10403314;28;20038;-77
2022/05/28 15:10:47;;;;;;;2.97;2.78;;;;;;;17.04;50.75;102211.09;10403085;28;20042;-77
2022/05/28 15:15:48;;;;;;;5.82;2.25;;;;;;;16.40;51.12;102218.69;10420673;28;20033;-77
2022/05/28 15:20:53;;;;;;;11.70;5.82;;;;;;;16.59;51.62;102213.50;10419981;28;20457;-76
2022/05/28 15:25:53;;;;;;;11.65;3.95;;;;;;;16.80;51.37;102216.13;10419878;28;20092;-77
2022/05/28 15:30:54;;;;;;;4.43;2.40;;;;;;;17.06;48.81;102207.09;10418948;28;20046;-76
2022/05/28 15:41:16;;;;;;;13.77;4.53;;;;;;;16.12;50.60;102209.75;10418725;28;20038;-76
2022/05/28 15:46:17;;;;;;;7.15;3.20;;;;;;;15.95;50.40;102207.34;10401677;28;20468;-77
2022/05/28 15:51:17;;;;;;;5.00;2.55;;;;;;;15.82;50.03;102212.69;10417450;28;20034;-77
2022/05/28 15:56:18;;;;;;;5.95;3.28;;;;;;;15.71;51.11;102207.81;10418597;28;20046;-77
2022/05/28 16:01:26;;;;;;;8.25;2.40;;;;;;;16.24;51.83;102199.91;10384579;28;20071;-77
2022/05/28 16:06:26;;;;;;;4.03;1.92;;;;;;;16.74;50.96;102186.81;10417092;28;20029;-77
2022/05/28 16:11:32;;;;;;;13.25;2.63;;;;;;;16.82;49.91;102186.66;10417979;28;20034;-77
2022/05/28 16:16:33;;;;;;;2.05;1.67;;;;;;;16.92;50.17;102194.47;10418356;28;20113;-77
2022/05/28 16:21:34;;;;;;;3.70;2.58;;;;;;;16.75;50.56;102185.78;10418267;28;20450;-77
2022/05/28 16:26:35;;;;;;;12.02;3.88;;;;;;;16.39;50.68;102181.47;10418330;28;20073;-77
2022/05/28 16:31:35;;;;;;;7.13;2.53;;;;;;;15.98;52.56;102171.38;10416478;28;20437;-78
2022/05/28 16:36:37;;;;;;;5.20;2.90;;;;;;;16.06;52.03;102172.28;10417626;28;20057;-77
2022/05/28 16:41:38;;;;;;;8.63;2.83;;;;;;;15.89;52.94;102175.38;10417000;28;20030;-77
2022/05/28 16:46:38;;;;;;;17.48;2.65;;;;;;;15.58;53.44;102171.13;10399555;28;20026;-77
2022/05/28 16:51:39;;;;;;;6.57;2.40;;;;;;;15.02;55.87;102170.25;10416608;28;20109;-76
2022/05/28 16:56:41;;;;;;;6.28;2.00;;;;;;;14.76;55.52;102181.75;10416606;28;20499;-77
2022/05/28 17:01:42;;;;;;;1.65;1.55;;;;;;;14.68;54.81;102173.69;10416377;28;20057;-77
2022/05/28 17:06:42;;;;;;;7.47;2.38;;;;;;;14.52;56.07;102174.81;10415692;28;20105;-77
2022/05/28 17:11:43;;;;;;;7.25;2.58;;;;;;;14.55;55.83;102175.25;10381617;28;20029;-77
2022/05/28 17:16:43;;;;;;;2.20;2.00;;;;;;;14.63;55.72;102166.09;10415357;28;20041;-77
2022/05/28 17:21:44;;;;;;;9.95;2.50;;;;;;;14.39;57.15;102167.28;10397806;28;20030;-77
2022/05/28 17:26:44;;;;;;;5.55;1.30;;;;;;;14.06;56.95;102170.44;10397729;28;20469;-76
2022/05/28 17:31:45;;;;;;;9.55;1.90;;;;;;;13.89;57.19;102164.34;10415401;28;20029;-76
2022/05/28 17:36:45;;;;;;;3.97;1.45;;;;;;;13.84;58.92;102160.50;10398532;28;20053;-76
2022/05/28 17:41:46;;;;;;;5.20;1.33;;;;;;;13.64;58.82;102152.88;10415974;28;20465;-76
2022/05/28 17:46:47;;;;;;;3.13;1.95;;;;;;;13.64;60.54;102150.16;10414298;28;20366;-75
2022/05/28 17:51:47;;;;;;;6.97;2.42;;;;;;;13.73;59.06;102154.50;10415038;28;20029;-76
2022/05/28 17:56:47;;;;;;;10.15;1.52;;;;;;;13.73;59.36;102149.06;10403411;28;20041;-76
2022/05/28 18:01:48;;;;;;;3.28;1.55;;;;;;;13.68;59.01;102151.47;10423643;28;20540;-76
2022/05/28 18:06:48;;;;;;;3.42;1.88;;;;;;;13.49;62.24;102147.44;10421834;28;20037;-77
2022/05/28 18:11:49;;;;;;;4.68;2.03;;;;;;;13.49;60.44;102141.16;10405170;28;20029;-76
2022/05/28 18:16:49;;;;;;;8.32;1.90;;;;;;;13.36;61.51;102147.22;10405248;28;20115;-76
2022/05/28 18:21:49;;;;;;;12.70;2.92;;;;;;;13.31;62.95;102135.25;10404613;28;20041;-76
2022/05/28 18:26:51;;;;;;;3.70;1.80;;;;;;;13.27;61.46;102134.72;10404546;28;20036;-77
2022/05/28 18:31:51;;;;;;;5.07;2.90;;;;;;;12.97;66.34;102136.53;10405518;28;20118;-76
2022/05/28 18:36:54;;;;;;;4.43;1.92;;;;;;;12.77;67.50;102131.59;10404531;28;20049;-77
2022/05/28 18:41:54;;;;;;;4.20;2.45;;;;;;;12.64;68.11;102123.19;10422625;28;20026;-76
2022/05/28 18:46:55;;;;;;;4.68;1.70;;;;;;;12.63;68.79;102126.94;10404382;28;20049;-76
2022/05/28 18:51:55;;;;;;;5.60;2.95;;;;;;;12.73;67.93;102127.56;10421957;28;20408;-76
2022/05/28 18:56:57;;;;;;;6.15;1.73;;;;;;;12.61;70.42;102120.84;10403910;28;20501;-77
2022/05/28 19:01:57;;;;;;;4.57;1.80;;;;;;;12.27;68.60;102118.50;10403136;28;20045;-76
2022/05/28 19:07:03;;;;;;;6.10;1.55;;;;;;;11.87;69.12;102106.84;10420493;28;20057;-76
2022/05/28 19:12:06;;;;;;;1.25;1.25;;;;;;;11.60;70.47;102118.97;10420246;28;20115;-76
2022/05/28 19:17:07;;;;;;;2.05;1.52;;;;;;;11.38;71.53;102104.25;10387199;28;20052;-76
2022/05/28 19:22:08;;;;;;;3.17;2.00;;;;;;;11.29;70.58;102108.00;10403245;28;20112;-76
2022/05/28 19:27:09;;;;;;;1.83;1.52;;;;;;;11.39;72.43;102108.66;10424520;28;20052;-76
2022/05/28 19:32:25;;;;;;;5.32;2.03;;;;;;;11.37;79.69;102122.41;10403629;28;20036;-79
2022/05/28 19:37:26;;;;;;;12.00;2.42;;;;;;;11.07;74.69;102123.13;10402805;28;20053;-79
2022/05/28 19:42:34;;;;;;;5.63;2.55;;;;;;;10.95;72.09;102117.22;10403731;28;20046;-78
2022/05/28 19:47:34;;;;;;;10.45;2.35;;;;;;;10.84;71.29;102118.38;10418755;28;20044;-77
2022/05/28 19:52:34;;;;;;;4.28;2.65;;;;;;;10.69;70.38;102107.41;10419176;28;20442;-77
2022/05/28 19:57:35;;;;;;;11.82;2.83;;;;;;;10.40;71.15;102107.88;10420120;28;20037;-77
2022/05/28 20:02:36;;;;;;;9.05;2.65;;;;;;;10.23;73.27;102098.81;10419853;28;20117;-77
2022/05/28 20:07:37;;;;;;;1.98;1.88;;;;;;;10.04;72.91;102095.56;10418483;28;20337;-77
2022/05/28 20:12:37;;;;;;;3.42;2.53;;;;;;;9.95;74.11;102095.53;10417642;28;20040;-78
2022/05/28 20:17:38;;;;;;;12.55;3.50;;;;;;;10.08;74.38;102092.34;10400495;28;20026;-77
2022/05/28 20:22:39;;;;;;;6.93;2.83;;;;;;;10.23;74.65;102090.72;10417857;28;20079;-77
2022/05/28 20:27:39;;;;;;;6.25;2.92;;;;;;;10.31;76.43;102086.38;10416433;28;20381;-78
2022/05/28 20:32:41;;;;;;;10.18;3.38;;;;;;;10.23;80.12;102079.03;10416357;28;20131;-78
2022/05/28 20:37:42;;;;;;;2.00;1.88;;;;;;;10.12;79.04;102071.25;10399584;28;20058;-78
2022/05/28 20:42:42;;;;;;;8.63;2.75;;;;;;;9.98;78.67;102065.44;10414360;28;20041;-78
2022/05/28 20:47:47;;;;;;;3.60;2.97;;;;;;;10.00;78.40;102060.72;10416003;28;20393;-78
2022/05/28 20:52:48;;;;;;;6.68;2.42;;;;;;;10.09;79.64;102050.75;10397429;28;20055;-78
2022/05/28 20:57:49;;;;;;;13.88;2.10;;;;;;;10.22;79.72;102050.28;10415011;28;20045;-78
2022/05/28 21:02:50;;;;;;;13.52;3.05;;;;;;;10.30;80.69;102042.19;10414903;28;20032;-79
2022/05/28 21:07:51;;;;;;;7.93;2.63;;;;;;;10.37;80.86;102032.41;10397096;28;20040;-79
2022/05/28 21:12:51;;;;;;;8.27;2.83;;;;;;;10.42;81.86;102032.72;10396424;28;20393;-79
2022/05/28 21:17:52;;;;;;;4.88;2.72;;;;;;;10.35;84.04;102034.41;10415129;28;20120;-79
2022/05/28 21:22:53;;;;;;;4.97;2.38;;;;;;;10.19;87.90;102026.25;10413261;28;20029;-79
2022/05/28 21:33:13;;;;;;;4.05;2.38;;;;;;;10.18;83.18;102011.03;10412460;28;20033;-79
2022/05/28 21:38:13;;;;;;;5.53;2.40;;;;;;;10.27;83.71;102014.59;10377133;28;1110314;-79
2022/05/28 21:43:14;;;;;;;12.85;3.40;;;;;;;10.41;86.46;102006.66;10414958;28;20072;-79
2022/05/28 21:48:15;;;;;;;9.25;3.00;;;;;;;10.57;88.34;101994.97;10415224;28;20034;-79
2022/05/28 21:53:15;;;;;;;18.30;3.90;;;;;;;10.65;90.16;101991.41;10413760;28;20497;-80
2022/05/28 21:58:16;;;;;;;5.50;2.58;;;;;;;10.63;86.48;101991.59;10397523;28;20117;-79
2022/05/28 22:03:21;;;;;;;11.55;2.13;;;;;;;10.48;91.49;101983.28;10415287;28;20117;-80
2022/05/28 22:08:22;;;;;;;8.73;2.40;;;;;;;10.33;86.71;101985.00;10398374;28;20029;-80
2022/05/28 22:13:22;;;;;;;4.60;2.53;;;;;;;10.15;87.19;101979.72;10415511;28;20044;-81
2022/05/28 22:18:23;;;;;;;7.90;2.08;;;;;;;10.00;85.22;101968.72;10417799;28;20029;-80
2022/05/28 22:23:23;;;;;;;7.32;2.45;;;;;;;9.89;84.64;101982.56;10415773;28;20053;-80
2022/05/28 22:28:23;;;;;;;13.05;3.17;;;;;;;9.79;85.53;101973.75;10414837;28;20469;-80
2022/05/28 22:33:25;;;;;;;9.00;2.85;;;;;;;9.73;85.49;101967.16;10414773;28;20029;-79
2022/05/28 22:38:25;;;;;;;13.35;2.60;;;;;;;9.63;85.54;101962.88;10396905;28;20037;-80
2022/05/28 22:43:28;;;;;;;7.03;2.78;;;;;;;9.52;84.43;101961.34;10418766;28;20041;-79
2022/05/28 22:48:37;;;;;;;2.40;1.65;;;;;;;9.52;87.62;101956.78;10405227;28;20079;-79
2022/05/28 22:53:44;;;;;;;5.78;2.53;;;;;;;9.62;87.91;101943.13;10422766;28;20045;-79
2022/05/28 22:58:44;;;;;;;21.38;3.88;;;;;;;9.65;88.21;101939.25;10420748;28;20036;-80
2022/05/28 23:03:45;;;;;;;11.10;2.10;;;;;;;9.54;88.30;101941.25;10421080;28;20034;-79
2022/05/28 23:08:45;;;;;;;14.65;3.15;;;;;;;9.43;86.49;101936.13;10404164;28;20047;-78
2022/05/28 23:13:46;;;;;;;7.95;2.70;;;;;;;9.36;89.69;101928.88;10387514;28;20033;-79
2022/05/28 23:18:46;;;;;;;6.82;2.38;;;;;;;9.28;87.04;101921.56;10419585;28;20045;-78
2022/05/28 23:29:08;;;;;;;14.45;3.50;;;;;;;9.05;86.07;101911.34;10404989;28;20029;-78
2022/05/28 23:34:09;;;;;;;3.75;1.70;;;;;;;9.00;86.69;101919.09;10402609;28;20041;-78